Time;durP1;ratioP1;P1;durP2;ratioP2;P2;SDS_P1;SDS_P2;PMS_P1;PMS_P2;Temp;Humidity;BMP_temperature;BMP_pressure;BME280_temperature;BME280_humidity;BME280_pressure;Samples;Min_cycle;Max_cycle;Signal;HPM_P1;HPM_P2
2023/03/10 00:00:39;;;;;;;28.88;20.00;;;5.10;99.90;;;;;;5052446;28;20244;-74
2023/03/10 00:03:08;;;;;;;29.00;18.05;;;5.20;99.90;;;;;;5052389;28;20689;-75
2023/03/10 00:05:36;;;;;;;27.67;21.45;;;5.20;99.90;;;;;;5051351;28;20228;-74
2023/03/10 00:08:03;;;;;;;22.02;17.52;;;5.20;99.90;;;;;;5052528;28;20556;-75
2023/03/10 00:10:30;;;;;;;25.85;17.88;;;5.20;99.90;;;;;;5051799;28;20720;-74
2023/03/10 00:12:57;;;;;;;29.48;20.55;;;5.20;99.90;;;;;;5052207;28;20232;-76
2023/03/10 00:15:24;;;;;;;25.05;17.67;;;5.10;99.90;;;;;;5051774;28;20228;-76
2023/03/10 00:17:54;;;;;;;26.60;19.50;;;5.10;99.90;;;;;;5052331;28;20228;-74
2023/03/10 00:20:23;;;;;;;26.35;19.50;;;5.20;99.90;;;;;;5051805;28;20223;-74
2023/03/10 00:22:50;;;;;;;25.88;18.27;;;5.20;99.90;;;;;;5052124;28;20228;-77
2023/03/10 00:25:18;;;;;;;23.63;15.93;;;5.20;99.90;;;;;;5051833;28;20282;-77
2023/03/10 00:27:45;;;;;;;23.05;16.42;;;5.20;99.90;;;;;;5052179;28;20231;-77
2023/03/10 00:30:13;;;;;;;23.92;17.80;;;5.20;99.90;;;;;;5052362;28;20649;-75
2023/03/10 00:32:40;;;;;;;22.73;18.00;;;5.20;99.90;;;;;;5050870;28;20243;-76
2023/03/10 00:35:07;;;;;;;20.58;15.63;;;5.20;99.90;;;;;;5052019;28;20286;-74
2023/03/10 00:37:38;;;;;;;22.63;15.95;;;5.10;99.90;;;;;;5053109;28;20224;-76
2023/03/10 00:40:08;;;;;;;21.17;15.10;;;5.00;99.90;;;;;;5056165;28;20322;-74
2023/03/10 00:42:35;;;;;;;21.77;15.45;;;5.00;99.90;;;;;;5055689;28;20290;-76
2023/03/10 00:45:03;;;;;;;24.10;15.75;;;5.00;99.90;;;;;;5055671;28;20627;-74
2023/03/10 00:47:31;;;;;;;24.08;15.10;;;4.90;99.90;;;;;;5055190;28;20224;-74
2023/03/10 00:49:58;;;;;;;21.17;14.55;;;4.90;99.90;;;;;;5050566;28;20308;-77
2023/03/10 00:52:25;;;;;;;23.23;16.48;;;4.90;99.90;;;;;;5055734;28;20216;-74
2023/03/10 00:54:54;;;;;;;23.08;16.60;;;4.80;99.90;;;;;;5055810;28;20232;-77
2023/03/10 00:57:21;;;;;;;21.08;15.60;;;4.70;99.90;;;;;;5055502;28;20682;-74
2023/03/10 00:59:50;;;;;;;25.98;16.52;;;4.70;99.90;;;;;;5055891;28;20228;-76
2023/03/10 01:02:18;;;;;;;20.20;14.27;;;4.70;99.90;;;;;;5055400;28;20709;-75
2023/03/10 01:04:46;;;;;;;24.77;15.77;;;4.70;99.90;;;;;;5055733;28;20221;-74
2023/03/10 01:07:17;;;;;;;21.42;14.77;;;4.70;99.90;;;;;;5055891;28;20232;-74
2023/03/10 01:09:44;;;;;;;22.63;16.63;;;4.70;99.90;;;;;;5056147;28;20227;-76
2023/03/10 01:12:12;;;;;;;21.95;16.23;;;4.80;99.90;;;;;;5059803;28;20290;-74
2023/03/10 01:14:39;;;;;;;25.98;15.73;;;4.80;99.90;;;;;;5055468;28;20236;-76
2023/03/10 01:17:07;;;;;;;19.20;14.30;;;4.80;99.90;;;;;;5054597;28;20563;-76
2023/03/10 01:19:34;;;;;;;25.67;17.02;;;4.80;99.90;;;;;;5053640;28;20235;-77
2023/03/10 01:22:01;;;;;;;22.58;15.80;;;4.80;99.90;;;;;;5055438;28;20308;-76
2023/03/10 01:24:28;;;;;;;24.48;16.45;;;4.80;99.90;;;;;;5054581;28;20278;-74
2023/03/10 01:26:55;;;;;;;25.00;19.02;;;4.80;99.90;;;;;;5055086;28;20709;-76
2023/03/10 01:29:23;;;;;;;21.75;15.00;;;4.80;99.90;;;;;;5055487;28;20256;-74
2023/03/10 01:31:55;;;;;;;24.70;16.13;;;4.80;99.90;;;;;;5057360;28;20228;-74
2023/03/10 01:34:22;;;;;;;23.55;15.45;;;4.90;99.90;;;;;;5058806;28;20224;-74
2023/03/10 01:36:49;;;;;;;24.67;15.38;;;4.90;99.90;;;;;;5057117;28;20220;-74
2023/03/10 01:39:17;;;;;;;21.75;16.10;;;4.80;99.90;;;;;;5053143;28;20690;-74
2023/03/10 01:41:44;;;;;;;22.08;15.05;;;4.90;99.90;;;;;;5060601;28;20675;-77
2023/03/10 01:44:15;;;;;;;21.75;14.32;;;4.80;99.90;;;;;;5057309;28;20238;-74
2023/03/10 01:46:49;;;;;;;22.48;15.10;;;4.80;99.90;;;;;;5055368;28;20216;-76
2023/03/10 01:49:43;;;;;;;27.15;15.20;;;4.90;99.90;;;;;;5054868;28;20229;-75
2023/03/10 01:52:16;;;;;;;19.83;14.75;;;4.90;99.90;;;;;;5055910;28;20225;-74
2023/03/10 01:54:50;;;;;;;25.23;15.07;;;4.80;99.90;;;;;;5058767;28;20239;-74
2023/03/10 01:57:22;;;;;;;22.83;14.68;;;4.80;99.90;;;;;;5060923;28;20217;-77
2023/03/10 01:59:50;;;;;;;24.08;15.45;;;4.80;99.90;;;;;;5061768;28;20224;-76
2023/03/10 02:02:19;;;;;;;21.52;14.38;;;4.80;99.90;;;;;;5060931;28;20221;-76
2023/03/10 02:04:48;;;;;;;25.15;15.52;;;4.80;99.90;;;;;;5060601;28;20600;-76
2023/03/10 02:07:19;;;;;;;21.90;13.88;;;4.80;99.90;;;;;;5060044;28;20220;-74
2023/03/10 02:09:49;;;;;;;19.50;14.95;;;4.80;99.90;;;;;;5057010;28;20232;-74
2023/03/10 02:12:16;;;;;;;19.10;14.57;;;4.80;99.90;;;;;;5054645;28;20248;-74
2023/03/10 02:14:45;;;;;;;22.25;16.25;;;4.80;99.90;;;;;;5054796;28;20279;-74
2023/03/10 02:17:20;;;;;;;22.83;15.77;;;4.80;99.90;;;;;;5057081;28;20223;-75
2023/03/10 02:20:05;;;;;;;20.58;15.32;;;4.80;99.90;;;;;;5045463;28;21914;-74
2023/03/10 02:22:33;;;;;;;24.42;15.02;;;4.70;99.90;;;;;;5053763;28;20255;-74
2023/03/10 02:25:10;;;;;;;24.95;16.55;;;4.80;99.90;;;;;;5054705;28;20230;-74
2023/03/10 02:27:40;;;;;;;19.27;14.50;;;4.70;99.90;;;;;;5053749;28;20234;-74
2023/03/10 02:30:10;;;;;;;23.63;15.48;;;4.70;99.90;;;;;;5054099;28;20251;-76
2023/03/10 02:32:42;;;;;;;22.05;14.60;;;4.70;99.90;;;;;;5052274;28;20221;-74
2023/03/10 02:35:11;;;;;;;24.83;13.18;;;4.70;99.90;;;;;;5054659;28;20658;-74
2023/03/10 02:37:39;;;;;;;20.92;13.95;;;4.70;99.90;;;;;;5053434;28;20224;-74
2023/03/10 02:40:30;;;;;;;21.67;14.10;;;4.70;99.90;;;;;;5053769;28;20220;-74
2023/03/10 02:43:02;;;;;;;23.40;14.02;;;4.70;99.90;;;;;;5053604;28;20227;-76
2023/03/10 02:45:32;;;;;;;21.20;14.88;;;4.70;99.90;;;;;;5054108;28;20228;-76
2023/03/10 02:47:59;;;;;;;22.35;14.70;;;4.70;99.90;;;;;;5053373;28;20270;-76
2023/03/10 02:50:33;;;;;;;23.65;16.13;;;4.70;99.90;;;;;;5053123;28;20236;-74
2023/03/10 02:53:06;;;;;;;22.10;14.65;;;4.70;99.90;;;;;;5053330;28;20303;-76
2023/03/10 02:55:33;;;;;;;19.55;13.93;;;4.70;99.90;;;;;;5052570;28;20252;-76
2023/03/10 02:58:02;;;;;;;20.92;13.85;;;4.70;99.90;;;;;;5052775;28;20229;-76
2023/03/10 03:00:30;;;;;;;18.10;12.20;;;4.60;99.90;;;;;;5052625;28;20244;-74
2023/03/10 03:02:57;;;;;;;18.85;12.80;;;4.60;99.90;;;;;;5052886;28;20239;-76
2023/03/10 03:05:25;;;;;;;23.48;13.77;;;4.70;99.90;;;;;;5053127;28;20236;-76
2023/03/10 03:07:52;;;;;;;23.75;14.48;;;4.70;99.90;;;;;;5052351;28;20319;-76
2023/03/10 03:10:19;;;;;;;16.80;13.00;;;4.70;99.90;;;;;;5053387;28;20286;-74
2023/03/10 03:12:49;;;;;;;21.05;14.60;;;4.70;99.90;;;;;;5053064;28;20332;-76
2023/03/10 03:15:17;;;;;;;17.48;11.63;;;4.60;99.90;;;;;;5053133;28;20232;-74
2023/03/10 03:17:45;;;;;;;18.85;12.15;;;4.60;99.90;;;;;;5052703;28;20225;-76
2023/03/10 03:20:13;;;;;;;18.75;13.82;;;4.70;99.90;;;;;;5053100;28;20257;-76
2023/03/10 03:22:41;;;;;;;17.17;12.20;;;4.70;99.90;;;;;;5052504;28;20226;-76
2023/03/10 03:25:09;;;;;;;17.90;12.45;;;4.70;99.90;;;;;;5053183;28;20687;-76
2023/03/10 03:27:37;;;;;;;22.38;13.27;;;4.70;99.90;;;;;;5052946;28;20229;-74
2023/03/10 03:30:07;;;;;;;16.17;12.07;;;4.70;99.90;;;;;;5052022;28;20258;-74
2023/03/10 03:32:37;;;;;;;16.90;11.95;;;4.70;99.90;;;;;;5053104;28;20231;-76
2023/03/10 03:35:05;;;;;;;16.80;10.68;;;4.70;99.90;;;;;;5052767;28;20606;-74
2023/03/10 03:37:32;;;;;;;14.65;10.40;;;4.60;99.90;;;;;;5053003;28;20681;-76
2023/03/10 03:39:59;;;;;;;13.43;10.98;;;4.60;99.90;;;;;;5051879;28;20225;-74
2023/03/10 03:42:26;;;;;;;16.08;10.25;;;4.60;99.90;;;;;;5053242;28;20623;-74
2023/03/10 03:44:53;;;;;;;17.58;11.88;;;4.60;99.90;;;;;;5052437;28;20666;-74
2023/03/10 03:47:21;;;;;;;12.90;10.13;;;4.60;99.90;;;;;;5052943;28;20605;-74
2023/03/10 03:49:49;;;;;;;17.52;10.43;;;4.50;99.90;;;;;;5051734;28;20225;-76
2023/03/10 03:52:16;;;;;;;14.25;11.95;;;4.40;99.90;;;;;;5051971;28;20282;-74
2023/03/10 03:54:43;;;;;;;18.15;10.88;;;4.40;99.90;;;;;;5051752;28;20230;-75
2023/03/10 03:57:10;;;;;;;13.45;9.85;;;4.40;99.90;;;;;;5052087;28;20295;-75
2023/03/10 03:59:37;;;;;;;12.48;10.23;;;4.30;99.90;;;;;;5052472;28;20232;-73
2023/03/10 04:02:04;;;;;;;16.23;11.50;;;4.40;99.90;;;;;;5041470;28;20337;-73
2023/03/10 04:04:31;;;;;;;17.35;10.80;;;4.30;99.90;;;;;;5051243;28;20228;-73
2023/03/10 04:07:01;;;;;;;16.55;11.05;;;4.30;99.90;;;;;;5051129;28;20252;-75
2023/03/10 04:09:28;;;;;;;12.13;9.40;;;4.30;99.90;;;;;;5051973;28;20298;-76
2023/03/10 04:11:56;;;;;;;12.88;9.32;;;4.40;99.90;;;;;;5051860;28;20235;-76
2023/03/10 04:14:23;;;;;;;13.95;10.52;;;4.40;99.90;;;;;;5052522;28;20256;-74
2023/03/10 04:16:53;;;;;;;13.60;10.93;;;4.40;99.90;;;;;;5051810;28;20221;-74
2023/03/10 04:19:20;;;;;;;12.13;10.43;;;4.40;99.90;;;;;;5052550;28;20220;-75
2023/03/10 04:21:47;;;;;;;12.25;9.50;;;4.40;99.90;;;;;;5052249;28;20220;-75
2023/03/10 04:24:15;;;;;;;12.20;9.30;;;4.40;99.90;;;;;;5052033;28;20231;-75
2023/03/10 04:26:43;;;;;;;14.70;11.25;;;4.50;99.90;;;;;;5052468;28;20228;-73
2023/03/10 04:29:10;;;;;;;13.80;10.57;;;4.50;99.90;;;;;;5051311;28;20232;-74
2023/03/10 04:31:40;;;;;;;16.15;11.63;;;4.50;99.90;;;;;;5052333;28;20224;-76
2023/03/10 04:34:09;;;;;;;14.55;10.75;;;4.60;99.90;;;;;;5051499;28;20235;-75
2023/03/10 04:36:40;;;;;;;11.75;9.38;;;4.60;99.90;;;;;;5048613;28;20259;-76
2023/03/10 04:39:08;;;;;;;13.02;10.20;;;4.70;99.90;;;;;;5049947;28;20217;-74
2023/03/10 04:41:37;;;;;;;11.93;10.13;;;4.80;99.90;;;;;;5051783;28;20240;-74
2023/03/10 04:44:04;;;;;;;12.07;10.45;;;4.80;99.90;;;;;;5051562;28;20255;-74
2023/03/10 04:46:31;;;;;;;14.65;11.50;;;4.80;99.90;;;;;;5052070;28;20282;-74
2023/03/10 04:48:58;;;;;;;11.60;9.20;;;4.80;99.90;;;;;;5051257;28;20302;-76
2023/03/10 04:51:25;;;;;;;10.90;9.77;;;4.80;99.90;;;;;;5051109;28;20248;-75
2023/03/10 04:53:52;;;;;;;13.35;10.15;;;4.90;99.90;;;;;;5051971;28;20304;-74
2023/03/10 04:56:19;;;;;;;12.32;9.80;;;4.90;99.90;;;;;;5051784;28;20228;-76
2023/03/10 04:58:48;;;;;;;11.65;9.88;;;4.90;99.90;;;;;;5051670;28;20554;-76
2023/03/10 05:01:16;;;;;;;11.20;9.98;;;4.90;99.90;;;;;;5051802;28;21687;-76
2023/03/10 05:03:44;;;;;;;15.63;10.60;;;5.00;99.90;;;;;;5052083;28;20225;-76
2023/03/10 05:06:14;;;;;;;11.90;8.52;;;4.90;99.90;;;;;;5051013;28;20295;-76
2023/03/10 05:08:41;;;;;;;12.88;10.27;;;4.90;99.90;;;;;;5051747;28;20253;-76
2023/03/10 05:11:08;;;;;;;11.57;10.13;;;4.90;99.90;;;;;;5051312;28;20307;-76
2023/03/10 05:13:36;;;;;;;10.70;9.38;;;5.00;99.90;;;;;;5051771;28;20554;-74
2023/03/10 05:16:05;;;;;;;11.40;9.55;;;4.90;99.90;;;;;;5051164;28;20701;-76
2023/03/10 05:18:32;;;;;;;12.88;9.45;;;4.90;99.90;;;;;;5051737;28;20232;-76
2023/03/10 05:20:59;;;;;;;12.95;9.82;;;5.00;99.90;;;;;;5050897;28;20229;-75
2023/03/10 05:23:26;;;;;;;10.40;8.93;;;4.90;99.90;;;;;;5050169;28;20320;-74
2023/03/10 05:25:56;;;;;;;12.57;10.40;;;4.90;99.90;;;;;;5025395;28;20284;-74
2023/03/10 05:28:23;;;;;;;11.45;10.25;;;4.90;99.90;;;;;;5034049;28;20237;-76
2023/03/10 05:30:50;;;;;;;14.20;10.50;;;4.90;99.90;;;;;;5025126;28;20663;-76
2023/03/10 05:33:18;;;;;;;11.23;9.50;;;4.90;99.90;;;;;;5034234;28;20311;-74
2023/03/10 05:35:45;;;;;;;11.10;8.73;;;5.00;99.90;;;;;;5035330;28;20229;-74
2023/03/10 05:38:14;;;;;;;12.10;9.85;;;5.00;99.90;;;;;;5034879;28;20233;-74
2023/03/10 05:40:43;;;;;;;12.52;10.23;;;5.00;99.90;;;;;;5035133;28;20249;-76
2023/03/10 05:43:10;;;;;;;12.40;8.80;;;5.00;99.90;;;;;;5034724;28;20222;-74
2023/03/10 05:45:37;;;;;;;10.43;9.43;;;4.90;99.90;;;;;;5035086;28;20347;-75
2023/03/10 05:48:05;;;;;;;11.98;10.73;;;4.90;99.90;;;;;;5034522;28;20229;-75
2023/03/10 05:50:34;;;;;;;10.90;8.27;;;4.90;99.90;;;;;;5035177;28;20229;-75
2023/03/10 05:53:01;;;;;;;10.98;9.07;;;4.90;99.90;;;;;;5035192;28;20237;-76
2023/03/10 05:55:30;;;;;;;10.57;9.32;;;4.80;99.90;;;;;;5034616;28;20218;-75
2023/03/10 05:57:57;;;;;;;11.38;9.40;;;4.80;99.90;;;;;;5034878;28;20304;-74
2023/03/10 06:00:24;;;;;;;10.68;9.57;;;4.80;99.90;;;;;;5034129;28;20291;-74
2023/03/10 06:02:51;;;;;;;11.90;9.70;;;4.80;99.90;;;;;;5034442;28;20256;-74
2023/03/10 06:05:19;;;;;;;9.40;8.60;;;4.80;99.90;;;;;;5033927;28;20291;-74
2023/03/10 06:07:47;;;;;;;13.55;9.15;;;4.80;99.90;;;;;;5033961;28;20590;-74
2023/03/10 06:10:14;;;;;;;10.90;9.60;;;4.80;99.90;;;;;;5033680;28;20319;-76
2023/03/10 06:12:41;;;;;;;12.48;10.40;;;4.80;99.90;;;;;;5034957;28;20232;-74
2023/03/10 06:15:09;;;;;;;11.55;9.85;;;4.80;99.90;;;;;;5034127;28;20309;-76
2023/03/10 06:17:36;;;;;;;10.18;8.60;;;4.90;99.90;;;;;;5034784;28;20707;-74
2023/03/10 06:20:04;;;;;;;9.75;7.97;;;4.90;99.90;;;;;;5034531;28;20240;-74
2023/03/10 06:22:31;;;;;;;12.52;9.30;;;4.90;99.90;;;;;;5033666;28;20283;-76
2023/03/10 06:25:00;;;;;;;10.82;9.40;;;5.00;99.90;;;;;;5033943;28;20749;-76
2023/03/10 06:27:27;;;;;;;10.82;9.55;;;5.00;99.90;;;;;;5033647;28;20235;-75
2023/03/10 06:29:54;;;;;;;11.15;8.38;;;5.10;99.90;;;;;;5034018;28;20229;-75
2023/03/10 06:32:21;;;;;;;11.45;8.93;;;5.10;99.90;;;;;;5033563;28;20236;-76
2023/03/10 06:34:49;;;;;;;10.75;9.35;;;5.10;99.90;;;;;;5034106;28;20226;-74
2023/03/10 06:37:16;;;;;;;11.73;8.93;;;5.10;99.90;;;;;;5033408;28;20532;-74
2023/03/10 06:39:43;;;;;;;10.38;9.27;;;5.10;99.90;;;;;;5033733;28;20713;-74
2023/03/10 06:42:12;;;;;;;10.75;9.65;;;5.10;99.90;;;;;;5033784;28;20286;-76
2023/03/10 06:44:39;;;;;;;11.00;9.07;;;5.10;99.90;;;;;;5034146;28;20221;-76
2023/03/10 06:47:06;;;;;;;10.00;8.40;;;5.20;99.90;;;;;;5032408;28;20725;-76
2023/03/10 06:49:34;;;;;;;12.40;9.73;;;5.20;99.90;;;;;;5032761;28;20554;-74
2023/03/10 06:52:01;;;;;;;15.68;9.13;;;5.30;99.90;;;;;;5033226;28;20229;-74
2023/03/10 06:54:28;;;;;;;14.07;9.40;;;5.30;99.90;;;;;;5033243;28;20229;-74
2023/03/10 06:56:55;;;;;;;12.00;10.38;;;5.30;99.90;;;;;;5034232;28;20229;-76
2023/03/10 06:59:24;;;;;;;13.90;9.88;;;5.30;99.90;;;;;;5033042;28;20312;-76
2023/03/10 07:01:51;;;;;;;13.13;10.10;;;5.30;99.90;;;;;;5034027;28;20228;-75
2023/03/10 07:04:19;;;;;;;13.32;11.32;;;5.30;99.90;;;;;;5032855;28;20229;-74
2023/03/10 07:06:45;;;;;;;13.80;11.35;;;5.30;99.90;;;;;;5033954;28;20316;-77
2023/03/10 07:09:12;;;;;;;20.90;11.23;;;5.30;99.90;;;;;;5033538;28;20229;-75
2023/03/10 07:11:39;;;;;;;13.40;10.77;;;5.30;99.90;;;;;;5032886;28;20236;-75
2023/03/10 07:14:07;;;;;;;14.63;11.25;;;5.40;99.90;;;;;;5033434;28;20294;-73
2023/03/10 07:16:35;;;;;;;14.55;11.00;;;5.40;99.90;;;;;;5032372;28;20241;-75
2023/03/10 07:19:02;;;;;;;13.85;11.65;;;5.40;99.90;;;;;;5033417;28;20299;-75
2023/03/10 07:21:31;;;;;;;15.25;12.40;;;5.40;99.90;;;;;;5032106;28;20533;-75
2023/03/10 07:23:59;;;;;;;19.42;14.55;;;5.40;99.90;;;;;;5033470;28;20236;-75
2023/03/10 07:26:29;;;;;;;15.93;14.23;;;5.40;99.90;;;;;;5032582;28;20240;-73
2023/03/10 07:28:56;;;;;;;12.65;11.35;;;5.40;99.90;;;;;;5032932;28;20233;-73
2023/03/10 07:31:22;;;;;;;15.15;11.80;;;5.40;99.90;;;;;;5032271;28;20324;-73
2023/03/10 07:33:51;;;;;;;12.60;11.30;;;5.40;99.90;;;;;;5033205;28;20710;-75
2023/03/10 07:36:21;;;;;;;15.13;12.20;;;5.50;99.90;;;;;;5032703;28;20237;-75
2023/03/10 07:38:49;;;;;;;13.48;11.50;;;5.50;99.90;;;;;;5033343;28;20549;-75
2023/03/10 07:41:19;;;;;;;14.15;12.70;;;5.60;99.90;;;;;;5033028;28;20225;-75
2023/03/10 07:43:47;;;;;;;12.48;11.18;;;5.60;99.90;;;;;;5032437;28;20263;-73
2023/03/10 07:46:15;;;;;;;13.93;10.80;;;5.60;99.90;;;;;;5032735;28;20229;-75
2023/03/10 07:48:43;;;;;;;17.17;12.85;;;5.70;99.90;;;;;;5031960;28;20679;-75
2023/03/10 07:51:12;;;;;;;13.73;12.07;;;5.80;99.90;;;;;;5033011;28;20229;-75
2023/03/10 07:53:39;;;;;;;16.58;14.05;;;5.80;99.90;;;;;;5032037;28;20610;-73
2023/03/10 07:56:08;;;;;;;14.75;12.88;;;5.90;99.90;;;;;;5032897;28;20229;-73
2023/03/10 07:58:35;;;;;;;13.23;11.82;;;5.90;99.90;;;;;;5032036;28;20303;-74
2023/03/10 08:01:05;;;;;;;12.82;11.43;;;5.90;99.90;;;;;;5032613;28;20276;-73
2023/03/10 08:03:33;;;;;;;16.23;11.45;;;5.90;99.90;;;;;;5032225;28;20296;-73
2023/03/10 08:06:00;;;;;;;12.35;11.05;;;6.00;99.90;;;;;;5032722;28;20229;-73
2023/03/10 08:08:29;;;;;;;18.30;12.15;;;6.10;99.90;;;;;;5032162;28;20562;-74
2023/03/10 08:11:04;;;;;;;14.68;12.70;;;6.00;99.90;;;;;;5032006;28;20225;-74
2023/03/10 08:13:32;;;;;;;16.23;13.73;;;5.90;99.90;;;;;;5032036;28;20220;-75
2023/03/10 08:16:00;;;;;;;15.18;11.65;;;6.00;99.90;;;;;;5032659;28;20221;-76
2023/03/10 08:18:28;;;;;;;15.15;11.43;;;6.10;99.90;;;;;;5032187;28;20300;-73
2023/03/10 08:20:55;;;;;;;15.25;12.20;;;6.00;99.90;;;;;;5032537;28;20221;-73
2023/03/10 08:23:23;;;;;;;14.93;11.55;;;6.10;99.90;;;;;;5032880;28;20384;-76
2023/03/10 08:25:52;;;;;;;17.77;12.68;;;6.20;99.90;;;;;;5032459;28;20233;-75
2023/03/10 08:28:19;;;;;;;13.82;12.32;;;6.20;99.90;;;;;;5032677;28;20241;-73
2023/03/10 08:30:46;;;;;;;15.25;13.50;;;6.20;99.90;;;;;;5031800;28;20687;-75
2023/03/10 08:33:13;;;;;;;14.45;12.95;;;6.30;99.90;;;;;;5031430;28;20228;-76
2023/03/10 08:35:40;;;;;;;15.27;13.48;;;6.40;99.90;;;;;;5048137;28;20220;-76
2023/03/10 08:38:08;;;;;;;13.60;12.20;;;6.40;99.90;;;;;;5043272;28;20220;-76
2023/03/10 08:40:35;;;;;;;16.40;13.70;;;6.40;99.90;;;;;;5048022;28;20306;-76
2023/03/10 08:43:05;;;;;;;13.55;11.98;;;6.50;99.90;;;;;;5052109;28;20227;-76
2023/03/10 08:45:33;;;;;;;12.20;10.95;;;6.50;99.90;;;;;;5051554;28;20224;-74
2023/03/10 08:48:02;;;;;;;14.23;12.25;;;6.60;99.90;;;;;;5051842;28;20293;-75
2023/03/10 08:50:29;;;;;;;14.57;11.98;;;6.60;99.90;;;;;;5050037;28;20220;-74
2023/03/10 08:52:56;;;;;;;13.98;12.52;;;6.70;99.90;;;;;;5052039;28;20224;-73
2023/03/10 08:55:23;;;;;;;16.45;12.73;;;6.80;99.90;;;;;;5051700;28;20246;-74
2023/03/10 08:57:51;;;;;;;13.90;12.07;;;6.80;99.90;;;;;;5051086;28;20220;-74
2023/03/10 09:00:22;;;;;;;14.10;12.15;;;6.90;99.90;;;;;;5055170;28;20225;-76
2023/03/10 09:02:49;;;;;;;14.60;11.32;;;6.90;99.90;;;;;;5050791;28;20232;-74
2023/03/10 09:05:16;;;;;;;15.82;12.63;;;7.00;99.90;;;;;;5055502;28;20303;-74
2023/03/10 09:07:43;;;;;;;14.15;12.50;;;7.00;99.90;;;;;;5055571;28;20229;-74
2023/03/10 09:10:11;;;;;;;13.77;12.00;;;7.00;99.90;;;;;;5047251;28;20598;-74
2023/03/10 09:12:38;;;;;;;13.90;12.23;;;7.10;99.90;;;;;;5052101;28;20224;-75
2023/03/10 09:15:06;;;;;;;14.73;12.55;;;7.10;99.90;;;;;;5054881;28;20231;-74
2023/03/10 09:17:34;;;;;;;15.50;12.73;;;7.20;99.90;;;;;;5052925;28;20549;-74
2023/03/10 09:20:05;;;;;;;14.98;12.10;;;7.20;99.90;;;;;;5053463;28;20224;-76
2023/03/10 09:22:32;;;;;;;14.70;13.18;;;7.20;99.90;;;;;;5053180;28;20228;-76
2023/03/10 09:24:59;;;;;;;14.02;12.45;;;7.20;99.90;;;;;;5053291;28;20240;-74
2023/03/10 09:27:27;;;;;;;21.92;14.20;;;7.30;99.90;;;;;;5055038;28;20221;-76
2023/03/10 09:29:54;;;;;;;16.58;14.02;;;7.30;99.90;;;;;;5054636;28;20225;-74
2023/03/10 09:32:21;;;;;;;14.65;12.35;;;7.30;99.90;;;;;;5054905;28;20228;-76
2023/03/10 09:34:49;;;;;;;14.88;12.90;;;7.40;99.90;;;;;;5054841;28;20232;-75
2023/03/10 09:37:17;;;;;;;14.48;13.05;;;7.40;99.90;;;;;;5055468;28;20224;-73
2023/03/10 09:39:44;;;;;;;15.07;13.48;;;7.50;99.90;;;;;;5054882;28;20224;-75
2023/03/10 09:42:27;;;;;;;14.23;12.70;;;7.50;99.90;;;;;;5054585;28;20243;-76
2023/03/10 09:45:04;;;;;;;18.10;15.15;;;7.60;99.90;;;;;;5054501;28;20721;-75
2023/03/10 09:47:45;;;;;;;19.33;17.30;;;7.70;99.90;;;;;;5054883;28;20250;-76
2023/03/10 09:50:25;;;;;;;21.45;17.25;;;7.70;99.90;;;;;;5055302;28;20233;-73
2023/03/10 09:52:59;;;;;;;18.30;15.73;;;7.80;99.90;;;;;;5055127;28;20228;-75
2023/03/10 09:55:30;;;;;;;16.83;14.80;;;7.80;99.90;;;;;;5053937;28;20220;-73
2023/03/10 09:57:58;;;;;;;18.05;14.93;;;7.90;99.90;;;;;;5054348;28;20315;-73
2023/03/10 10:00:29;;;;;;;15.63;13.98;;;8.00;99.90;;;;;;5054304;28;20230;-74
2023/03/10 10:03:03;;;;;;;17.45;13.25;;;8.10;99.90;;;;;;5054353;28;20242;-73
2023/03/10 10:05:36;;;;;;;14.02;12.63;;;8.10;99.90;;;;;;5054295;28;20228;-73
2023/03/10 10:08:11;;;;;;;14.43;12.90;;;8.10;99.90;;;;;;5054397;28;20761;-73
2023/03/10 10:10:39;;;;;;;14.35;12.80;;;8.20;99.90;;;;;;5053630;28;20219;-74
2023/03/10 10:13:13;;;;;;;14.70;13.13;;;8.20;99.90;;;;;;5054557;28;20229;-75
2023/03/10 10:15:44;;;;;;;15.52;12.30;;;8.20;99.90;;;;;;5053516;28;20219;-75
2023/03/10 10:18:17;;;;;;;15.65;12.88;;;8.20;99.90;;;;;;5053335;28;20682;-75
2023/03/10 10:20:57;;;;;;;15.60;13.35;;;8.20;99.90;;;;;;5054790;28;20256;-73
2023/03/10 10:23:32;;;;;;;13.63;12.25;;;8.20;99.90;;;;;;5053598;28;20244;-75
2023/03/10 10:26:01;;;;;;;13.90;12.60;;;8.30;99.90;;;;;;5037575;28;20224;-76
2023/03/10 10:28:40;;;;;;;15.60;13.93;;;8.30;99.90;;;;;;5034704;28;20241;-74
2023/03/10 10:31:13;;;;;;;12.98;11.68;;;8.40;99.90;;;;;;5036434;28;20240;-74
2023/03/10 10:33:59;;;;;;;14.27;12.88;;;8.40;99.90;;;;;;5052516;28;20225;-73
2023/03/10 10:36:31;;;;;;;14.40;12.10;;;8.40;99.90;;;;;;5053178;28;20236;-75
2023/03/10 10:42:22;;;;;;;14.80;13.18;;;8.50;99.90;;;;;;5038929;28;20553;-75
2023/03/10 10:44:52;;;;;;;12.75;11.45;;;8.60;99.90;;;;;;5055102;28;20224;-74
2023/03/10 10:47:31;;;;;;;13.18;11.80;;;8.60;99.90;;;;;;5055304;28;20225;-73
2023/03/10 10:50:19;;;;;;;15.50;12.82;;;8.60;99.90;;;;;;5035633;28;20225;-72
2023/03/10 10:52:51;;;;;;;15.75;14.00;;;8.70;99.90;;;;;;5038755;28;20230;-76
2023/03/10 10:55:27;;;;;;;17.95;14.80;;;8.70;99.90;;;;;;5038931;28;20311;-74
2023/03/10 10:57:56;;;;;;;17.15;15.32;;;8.80;99.90;;;;;;5042843;28;20228;-75
2023/03/10 11:00:28;;;;;;;15.40;13.80;;;8.90;99.90;;;;;;5058707;28;20220;-75
2023/03/10 11:02:56;;;;;;;16.98;15.27;;;8.90;99.90;;;;;;5058386;28;20232;-76
2023/03/10 11:05:26;;;;;;;15.80;14.30;;;8.90;99.90;;;;;;5048618;28;20227;-75
2023/03/10 11:07:55;;;;;;;15.98;14.35;;;9.00;99.90;;;;;;5055775;28;20247;-75
2023/03/10 11:10:28;;;;;;;18.05;14.98;;;9.00;99.90;;;;;;5057185;28;20236;-74
2023/03/10 11:13:02;;;;;;;15.40;13.77;;;9.10;99.90;;;;;;5054886;28;20252;-75
2023/03/10 11:15:33;;;;;;;16.70;14.10;;;9.10;99.90;;;;;;5055753;28;20216;-73
2023/03/10 11:18:08;;;;;;;16.33;12.70;;;9.20;99.90;;;;;;5054290;28;20240;-75
2023/03/10 11:20:46;;;;;;;13.25;11.43;;;9.20;99.90;;;;;;5058054;28;20362;-75
2023/03/10 11:23:22;;;;;;;14.82;13.20;;;9.30;99.90;;;;;;5058954;28;20677;-76
2023/03/10 11:25:53;;;;;;;13.77;12.20;;;9.30;99.90;;;;;;5054366;28;20246;-75
2023/03/10 11:28:40;;;;;;;13.27;12.00;;;9.40;99.90;;;;;;5053608;28;20239;-74
2023/03/10 11:31:22;;;;;;;15.98;13.40;;;9.40;99.90;;;;;;5051839;28;20220;-74
2023/03/10 11:33:55;;;;;;;13.30;11.70;;;9.50;99.90;;;;;;5053309;28;20234;-74
2023/03/10 11:36:35;;;;;;;16.30;13.05;;;9.60;99.90;;;;;;5052454;28;20299;-76
2023/03/10 11:39:13;;;;;;;13.93;12.52;;;9.60;99.90;;;;;;5053283;28;20232;-74
2023/03/10 11:41:45;;;;;;;15.07;12.15;;;9.60;99.90;;;;;;5052378;28;20243;-76
2023/03/10 11:44:19;;;;;;;12.57;11.27;;;9.60;99.90;;;;;;5052114;28;20248;-76
2023/03/10 11:46:57;;;;;;;13.07;11.88;;;9.60;99.90;;;;;;5052961;28;20282;-75
2023/03/10 11:49:31;;;;;;;14.10;12.43;;;9.70;99.90;;;;;;5052233;28;20610;-76
2023/03/10 11:52:00;;;;;;;13.35;11.80;;;9.70;99.90;;;;;;5052605;28;20232;-76
2023/03/10 11:54:35;;;;;;;12.25;11.02;;;9.70;99.90;;;;;;5052287;28;20669;-74
2023/03/10 11:57:09;;;;;;;16.27;14.60;;;9.80;99.90;;;;;;5052470;28;20224;-73
2023/03/10 11:59:46;;;;;;;14.25;12.85;;;9.80;99.90;;;;;;5051652;28;20247;-74
2023/03/10 12:02:20;;;;;;;14.68;13.10;;;9.80;99.90;;;;;;5051428;28;20220;-75
2023/03/10 12:04:51;;;;;;;14.95;12.40;;;9.80;99.90;;;;;;5052523;28;20221;-75
2023/03/10 12:07:22;;;;;;;12.50;11.25;;;9.90;99.90;;;;;;5046974;28;20232;-74
2023/03/10 12:09:54;;;;;;;13.90;12.57;;;9.90;99.90;;;;;;5032832;28;20228;-76
2023/03/10 12:12:26;;;;;;;11.07;10.00;;;9.90;99.90;;;;;;5031773;28;20293;-74
2023/03/10 12:14:55;;;;;;;12.30;10.70;;;9.90;99.90;;;;;;5033201;28;20725;-73
2023/03/10 12:17:23;;;;;;;11.93;10.80;;;9.90;99.90;;;;;;5048417;28;20229;-76
2023/03/10 12:20:10;;;;;;;11.73;10.63;;;9.90;99.90;;;;;;5052979;28;20229;-73
2023/03/10 12:22:40;;;;;;;12.13;10.45;;;9.90;99.90;;;;;;5052168;28;20224;-76
2023/03/10 12:25:40;;;;;;;14.20;10.75;;;9.90;99.90;;;;;;5051935;28;20224;-75
2023/03/10 12:28:31;;;;;;;10.23;9.32;;;9.90;99.90;;;;;;5051293;28;20228;-74
2023/03/10 12:30:59;;;;;;;14.20;9.95;;;10.00;99.90;;;;;;5049619;28;20716;-74
2023/03/10 12:33:43;;;;;;;14.27;11.63;;;9.90;99.90;;;;;;5054157;28;20224;-74
2023/03/10 12:36:14;;;;;;;10.20;9.13;;;9.90;99.90;;;;;;5055486;28;20633;-74
2023/03/10 12:38:47;;;;;;;10.73;9.73;;;9.90;99.90;;;;;;5056659;28;20237;-74
2023/03/10 12:41:35;;;;;;;10.88;9.70;;;9.90;99.90;;;;;;5055611;28;20316;-74
2023/03/10 12:44:25;;;;;;;10.55;9.52;;;9.90;99.90;;;;;;5035571;28;20225;-74
2023/03/10 12:46:56;;;;;;;12.50;9.13;;;9.90;99.90;;;;;;5036167;28;20551;-76
2023/03/10 12:49:35;;;;;;;10.20;8.85;;;9.90;99.90;;;;;;5051369;28;20220;-74
2023/03/10 12:52:19;;;;;;;11.98;8.95;;;9.90;99.90;;;;;;5055708;28;20224;-74
2023/03/10 12:55:03;;;;;;;9.45;8.43;;;9.90;99.90;;;;;;5062669;28;20307;-74